sensor_id;sensor_type;location;lat;lon;timestamp;temperature;humidity
38784;DHT22;24531;45.502;12.238;2024-01-30T00:01:42;6.30;99.90
38784;DHT22;24531;45.502;12.238;2024-01-30T00:04:07;6.20;99.90
38784;DHT22;24531;45.502;12.238;2024-01-30T00:06:33;6.20;99.90
38784;DHT22;24531;45.502;12.238;2024-01-30T00:08:58;6.30;99.90
38784;DHT22;24531;45.502;12.238;2024-01-30T00:11:24;6.20;99.90
38784;DHT22;24531;45.502;12.238;2024-01-30T00:13:54;6.20;99.90
38784;DHT22;24531;45.502;12.238;2024-01-30T00:16:22;6.10;99.90
38784;DHT22;24531;45.502;12.238;2024-01-30T00:18:49;6.10;99.90
38784;DHT22;24531;45.502;12.238;2024-01-30T00:21:15;6.20;99.90
38784;DHT22;24531;45.502;12.238;2024-01-30T00:23:41;6.10;99.90
38784;DHT22;24531;45.502;12.238;2024-01-30T00:26:06;6.20;99.90
38784;DHT22;24531;45.502;12.238;2024-01-30T00:28:32;6.00;99.90
38784;DHT22;24531;45.502;12.238;2024-01-30T00:30:57;6.00;99.90
38784;DHT22;24531;45.502;12.238;2024-01-30T00:33:23;5.90;99.90
38784;DHT22;24531;45.502;12.238;2024-01-30T00:35:48;5.80;99.90
38784;DHT22;24531;45.502;12.238;2024-01-30T00:38:14;5.80;99.90
38784;DHT22;24531;45.502;12.238;2024-01-30T00:40:40;5.70;99.90
38784;DHT22;24531;45.502;12.238;2024-01-30T00:43:05;5.60;99.90
38784;DHT22;24531;45.502;12.238;2024-01-30T00:45:31;5.60;99.90
38784;DHT22;24531;45.502;12.238;2024-01-30T00:47:57;5.50;99.90
38784;DHT22;24531;45.502;12.238;2024-01-30T00:50:22;5.50;99.90
38784;DHT22;24531;45.502;12.238;2024-01-30T00:52:48;5.40;99.90
38784;DHT22;24531;45.502;12.238;2024-01-30T00:55:13;5.40;99.90
38784;DHT22;24531;45.502;12.238;2024-01-30T00:57:40;5.30;99.90
38784;DHT22;24531;45.502;12.238;2024-01-30T01:00:08;5.30;99.90
38784;DHT22;24531;45.502;12.238;2024-01-30T01:02:35;5.30;99.90
38784;DHT22;24531;45.502;12.238;2024-01-30T01:05:01;5.40;99.90
38784;DHT22;24531;45.502;12.238;2024-01-30T01:07:26;5.40;99.90
38784;DHT22;24531;45.502;12.238;2024-01-30T01:09:52;5.40;99.90
38784;DHT22;24531;45.502;12.238;2024-01-30T01:12:18;5.40;99.90
38784;DHT22;24531;45.502;12.238;2024-01-30T01:14:43;5.30;99.90
38784;DHT22;24531;45.502;12.238;2024-01-30T01:17:09;5.20;99.90
38784;DHT22;24531;45.502;12.238;2024-01-30T01:19:35;5.20;99.90
38784;DHT22;24531;45.502;12.238;2024-01-30T01:22:00;5.10;99.90
38784;DHT22;24531;45.502;12.238;2024-01-30T01:24:26;5.10;99.90
38784;DHT22;24531;45.502;12.238;2024-01-30T01:26:51;5.00;99.90
38784;DHT22;24531;45.502;12.238;2024-01-30T01:29:17;5.10;99.90
38784;DHT22;24531;45.502;12.238;2024-01-30T01:31:43;5.00;99.90
38784;DHT22;24531;45.502;12.238;2024-01-30T01:34:10;4.90;99.90
38784;DHT22;24531;45.502;12.238;2024-01-30T01:36:35;5.00;99.90
38784;DHT22;24531;45.502;12.238;2024-01-30T01:39:01;4.90;99.90
38784;DHT22;24531;45.502;12.238;2024-01-30T01:41:31;4.90;99.90
38784;DHT22;24531;45.502;12.238;2024-01-30T01:44:00;5.00;99.90
38784;DHT22;24531;45.502;12.238;2024-01-30T01:46:31;5.00;99.90
38784;DHT22;24531;45.502;12.238;2024-01-30T01:48:58;4.90;99.90
38784;DHT22;24531;45.502;12.238;2024-01-30T01:51:27;4.90;99.90
38784;DHT22;24531;45.502;12.238;2024-01-30T01:53:57;4.80;99.90
38784;DHT22;24531;45.502;12.238;2024-01-30T01:56:24;4.80;99.90
38784;DHT22;24531;45.502;12.238;2024-01-30T01:58:51;4.90;99.90
38784;DHT22;24531;45.502;12.238;2024-01-30T02:01:20;4.90;99.90
38784;DHT22;24531;45.502;12.238;2024-01-30T02:03:47;4.90;99.90
38784;DHT22;24531;45.502;12.238;2024-01-30T02:06:16;4.90;99.90
38784;DHT22;24531;45.502;12.238;2024-01-30T02:08:42;4.90;99.90
38784;DHT22;24531;45.502;12.238;2024-01-30T02:11:07;4.90;99.90
38784;DHT22;24531;45.502;12.238;2024-01-30T02:13:33;4.80;99.90
38784;DHT22;24531;45.502;12.238;2024-01-30T02:15:59;4.70;99.90
38784;DHT22;24531;45.502;12.238;2024-01-30T02:18:26;4.60;99.90
38784;DHT22;24531;45.502;12.238;2024-01-30T02:20:54;4.60;99.90
38784;DHT22;24531;45.502;12.238;2024-01-30T02:23:20;4.60;99.90
38784;DHT22;24531;45.502;12.238;2024-01-30T02:25:47;4.60;99.90
38784;DHT22;24531;45.502;12.238;2024-01-30T02:28:15;4.60;99.90
38784;DHT22;24531;45.502;12.238;2024-01-30T02:30:43;4.50;99.90
38784;DHT22;24531;45.502;12.238;2024-01-30T02:33:09;4.60;99.90
38784;DHT22;24531;45.502;12.238;2024-01-30T02:35:34;4.40;99.90
38784;DHT22;24531;45.502;12.238;2024-01-30T02:38:00;4.50;99.90
38784;DHT22;24531;45.502;12.238;2024-01-30T02:40:26;4.60;99.90
38784;DHT22;24531;45.502;12.238;2024-01-30T02:42:51;4.70;99.90
38784;DHT22;24531;45.502;12.238;2024-01-30T02:45:17;4.60;99.90
38784;DHT22;24531;45.502;12.238;2024-01-30T02:47:43;4.60;99.90
38784;DHT22;24531;45.502;12.238;2024-01-30T02:50:09;4.60;99.90
38784;DHT22;24531;45.502;12.238;2024-01-30T02:52:35;4.50;99.90
38784;DHT22;24531;45.502;12.238;2024-01-30T02:55:01;4.60;99.90
38784;DHT22;24531;45.502;12.238;2024-01-30T02:57:27;4.60;99.90
38784;DHT22;24531;45.502;12.238;2024-01-30T02:59:53;4.60;99.90
38784;DHT22;24531;45.502;12.238;2024-01-30T03:02:18;4.70;99.90
38784;DHT22;24531;45.502;12.238;2024-01-30T03:04:44;4.70;99.90
38784;DHT22;24531;45.502;12.238;2024-01-30T03:07:09;4.70;99.90
38784;DHT22;24531;45.502;12.238;2024-01-30T03:09:36;4.70;99.90
38784;DHT22;24531;45.502;12.238;2024-01-30T03:12:02;4.60;99.90
38784;DHT22;24531;45.502;12.238;2024-01-30T03:14:31;4.50;99.90
38784;DHT22;24531;45.502;12.238;2024-01-30T03:16:57;4.50;99.90
38784;DHT22;24531;45.502;12.238;2024-01-30T03:19:23;4.40;99.90
38784;DHT22;24531;45.502;12.238;2024-01-30T03:21:48;4.40;99.90
38784;DHT22;24531;45.502;12.238;2024-01-30T03:24:14;4.30;99.90
38784;DHT22;24531;45.502;12.238;2024-01-30T03:26:39;4.30;99.90
38784;DHT22;24531;45.502;12.238;2024-01-30T03:29:05;4.30;99.90
38784;DHT22;24531;45.502;12.238;2024-01-30T03:31:31;4.30;99.90
38784;DHT22;24531;45.502;12.238;2024-01-30T03:33:56;4.30;99.90
38784;DHT22;24531;45.502;12.238;2024-01-30T03:36:22;4.30;99.90
38784;DHT22;24531;45.502;12.238;2024-01-30T03:38:47;4.20;99.90
38784;DHT22;24531;45.502;12.238;2024-01-30T03:41:13;4.30;99.90
38784;DHT22;24531;45.502;12.238;2024-01-30T03:43:38;4.20;99.90
38784;DHT22;24531;45.502;12.238;2024-01-30T03:46:04;4.20;99.90
38784;DHT22;24531;45.502;12.238;2024-01-30T03:48:30;4.30;99.90
38784;DHT22;24531;45.502;12.238;2024-01-30T03:50:55;4.40;99.90
38784;DHT22;24531;45.502;12.238;2024-01-30T03:53:21;4.40;99.90
38784;DHT22;24531;45.502;12.238;2024-01-30T03:55:47;4.40;99.90
38784;DHT22;24531;45.502;12.238;2024-01-30T03:58:12;4.50;99.90
38784;DHT22;24531;45.502;12.238;2024-01-30T04:00:38;4.40;99.90
38784;DHT22;24531;45.502;12.238;2024-01-30T04:03:04;4.30;99.90
38784;DHT22;24531;45.502;12.238;2024-01-30T04:05:30;4.10;99.90
38784;DHT22;24531;45.502;12.238;2024-01-30T04:07:55;4.00;99.90
38784;DHT22;24531;45.502;12.238;2024-01-30T04:10:21;4.00;99.90
38784;DHT22;24531;45.502;12.238;2024-01-30T04:12:47;3.90;99.90
38784;DHT22;24531;45.502;12.238;2024-01-30T04:15:13;3.80;99.90
38784;DHT22;24531;45.502;12.238;2024-01-30T04:17:39;3.90;99.90
38784;DHT22;24531;45.502;12.238;2024-01-30T04:20:05;3.90;99.90
38784;DHT22;24531;45.502;12.238;2024-01-30T04:22:31;3.90;99.90
38784;DHT22;24531;45.502;12.238;2024-01-30T04:24:57;4.00;99.90
38784;DHT22;24531;45.502;12.238;2024-01-30T04:27:22;3.90;99.90
38784;DHT22;24531;45.502;12.238;2024-01-30T04:29:48;4.00;99.90
38784;DHT22;24531;45.502;12.238;2024-01-30T04:32:14;4.20;99.90
38784;DHT22;24531;45.502;12.238;2024-01-30T04:34:39;4.20;99.90
38784;DHT22;24531;45.502;12.238;2024-01-30T04:37:05;4.20;99.90
38784;DHT22;24531;45.502;12.238;2024-01-30T04:39:33;4.10;99.90
38784;DHT22;24531;45.502;12.238;2024-01-30T04:41:58;4.10;99.90
38784;DHT22;24531;45.502;12.238;2024-01-30T04:44:24;4.00;99.90
38784;DHT22;24531;45.502;12.238;2024-01-30T04:46:50;4.00;99.90
38784;DHT22;24531;45.502;12.238;2024-01-30T04:49:16;3.90;99.90
38784;DHT22;24531;45.502;12.238;2024-01-30T04:51:41;3.80;99.90
38784;DHT22;24531;45.502;12.238;2024-01-30T04:54:07;3.70;99.90
38784;DHT22;24531;45.502;12.238;2024-01-30T04:56:32;3.70;99.90
38784;DHT22;24531;45.502;12.238;2024-01-30T04:58:58;3.70;99.90
38784;DHT22;24531;45.502;12.238;2024-01-30T05:01:24;3.70;99.90
38784;DHT22;24531;45.502;12.238;2024-01-30T05:03:50;3.70;99.90
38784;DHT22;24531;45.502;12.238;2024-01-30T05:06:27;3.80;99.90
38784;DHT22;24531;45.502;12.238;2024-01-30T05:08:53;3.90;99.90
38784;DHT22;24531;45.502;12.238;2024-01-30T05:11:18;3.90;99.90
38784;DHT22;24531;45.502;12.238;2024-01-30T05:13:44;3.90;99.90
38784;DHT22;24531;45.502;12.238;2024-01-30T05:16:10;3.90;99.90
38784;DHT22;24531;45.502;12.238;2024-01-30T05:18:36;3.90;99.90
38784;DHT22;24531;45.502;12.238;2024-01-30T05:21:02;3.90;99.90
38784;DHT22;24531;45.502;12.238;2024-01-30T05:23:28;4.00;99.90
38784;DHT22;24531;45.502;12.238;2024-01-30T05:25:53;4.00;99.90
38784;DHT22;24531;45.502;12.238;2024-01-30T05:28:19;4.00;99.90
38784;DHT22;24531;45.502;12.238;2024-01-30T05:30:44;4.10;99.90
38784;DHT22;24531;45.502;12.238;2024-01-30T05:33:10;3.80;99.90
38784;DHT22;24531;45.502;12.238;2024-01-30T05:35:37;3.70;99.90
38784;DHT22;24531;45.502;12.238;2024-01-30T05:38:03;3.70;99.90
38784;DHT22;24531;45.502;12.238;2024-01-30T05:40:29;3.70;99.90
38784;DHT22;24531;45.502;12.238;2024-01-30T05:42:55;3.60;99.90
38784;DHT22;24531;45.502;12.238;2024-01-30T05:45:21;3.60;99.90
38784;DHT22;24531;45.502;12.238;2024-01-30T05:47:48;3.60;99.90
38784;DHT22;24531;45.502;12.238;2024-01-30T05:50:14;3.50;99.90
38784;DHT22;24531;45.502;12.238;2024-01-30T05:52:40;3.60;99.90
38784;DHT22;24531;45.502;12.238;2024-01-30T05:55:06;3.60;99.90
38784;DHT22;24531;45.502;12.238;2024-01-30T05:57:32;3.60;99.90
38784;DHT22;24531;45.502;12.238;2024-01-30T05:59:57;3.60;99.90
38784;DHT22;24531;45.502;12.238;2024-01-30T06:02:23;3.60;99.90
38784;DHT22;24531;45.502;12.238;2024-01-30T06:04:49;3.60;99.90
38784;DHT22;24531;45.502;12.238;2024-01-30T06:07:14;3.60;99.90
38784;DHT22;24531;45.502;12.238;2024-01-30T06:09:40;3.60;99.90
38784;DHT22;24531;45.502;12.238;2024-01-30T06:12:06;3.60;99.90
38784;DHT22;24531;45.502;12.238;2024-01-30T06:14:32;3.70;99.90
38784;DHT22;24531;45.502;12.238;2024-01-30T06:16:59;3.70;99.90
38784;DHT22;24531;45.502;12.238;2024-01-30T06:19:24;3.70;99.90
38784;DHT22;24531;45.502;12.238;2024-01-30T06:21:50;3.60;99.90
38784;DHT22;24531;45.502;12.238;2024-01-30T06:24:15;3.50;99.90
38784;DHT22;24531;45.502;12.238;2024-01-30T06:26:41;3.50;99.90
38784;DHT22;24531;45.502;12.238;2024-01-30T06:29:06;3.50;99.90
38784;DHT22;24531;45.502;12.238;2024-01-30T06:31:33;3.60;99.90
38784;DHT22;24531;45.502;12.238;2024-01-30T06:33:58;3.70;99.90
38784;DHT22;24531;45.502;12.238;2024-01-30T06:36:24;3.70;99.90
38784;DHT22;24531;45.502;12.238;2024-01-30T06:38:49;3.80;99.90
38784;DHT22;24531;45.502;12.238;2024-01-30T06:41:15;3.90;99.90
38784;DHT22;24531;45.502;12.238;2024-01-30T06:43:41;3.90;99.90
38784;DHT22;24531;45.502;12.238;2024-01-30T06:46:06;3.80;99.90
38784;DHT22;24531;45.502;12.238;2024-01-30T06:48:32;3.90;99.90
38784;DHT22;24531;45.502;12.238;2024-01-30T06:50:58;3.90;99.90
38784;DHT22;24531;45.502;12.238;2024-01-30T06:53:23;3.90;99.90
38784;DHT22;24531;45.502;12.238;2024-01-30T06:55:51;3.90;99.90
38784;DHT22;24531;45.502;12.238;2024-01-30T06:58:17;3.90;99.90
38784;DHT22;24531;45.502;12.238;2024-01-30T07:00:43;4.00;99.90
38784;DHT22;24531;45.502;12.238;2024-01-30T07:03:11;3.80;99.90
38784;DHT22;24531;45.502;12.238;2024-01-30T07:05:40;3.80;99.90
38784;DHT22;24531;45.502;12.238;2024-01-30T07:08:06;3.90;99.90
38784;DHT22;24531;45.502;12.238;2024-01-30T07:10:32;3.80;99.90
38784;DHT22;24531;45.502;12.238;2024-01-30T07:12:59;3.90;99.90
38784;DHT22;24531;45.502;12.238;2024-01-30T07:15:25;4.00;99.90
38784;DHT22;24531;45.502;12.238;2024-01-30T07:17:51;3.90;99.90
38784;DHT22;24531;45.502;12.238;2024-01-30T07:20:17;4.00;99.90
38784;DHT22;24531;45.502;12.238;2024-01-30T07:22:46;4.10;99.90
38784;DHT22;24531;45.502;12.238;2024-01-30T07:25:11;4.20;99.90
38784;DHT22;24531;45.502;12.238;2024-01-30T07:27:37;4.20;99.90
38784;DHT22;24531;45.502;12.238;2024-01-30T07:30:03;4.20;99.90
38784;DHT22;24531;45.502;12.238;2024-01-30T07:32:28;4.30;99.90
38784;DHT22;24531;45.502;12.238;2024-01-30T07:34:54;4.50;99.90
38784;DHT22;24531;45.502;12.238;2024-01-30T07:37:20;4.40;99.90
38784;DHT22;24531;45.502;12.238;2024-01-30T07:39:47;4.40;99.90
38784;DHT22;24531;45.502;12.238;2024-01-30T07:42:13;4.40;99.90
38784;DHT22;24531;45.502;12.238;2024-01-30T07:44:39;4.30;99.90
38784;DHT22;24531;45.502;12.238;2024-01-30T07:47:05;4.30;99.90
38784;DHT22;24531;45.502;12.238;2024-01-30T07:49:31;4.50;99.90
38784;DHT22;24531;45.502;12.238;2024-01-30T07:52:00;4.90;99.90
38784;DHT22;24531;45.502;12.238;2024-01-30T07:54:25;5.20;99.90
38784;DHT22;24531;45.502;12.238;2024-01-30T07:56:51;5.40;99.90
38784;DHT22;24531;45.502;12.238;2024-01-30T07:59:16;5.50;99.90
38784;DHT22;24531;45.502;12.238;2024-01-30T08:01:42;5.70;99.90
38784;DHT22;24531;45.502;12.238;2024-01-30T08:04:08;5.80;99.90
38784;DHT22;24531;45.502;12.238;2024-01-30T08:06:34;5.90;99.90
38784;DHT22;24531;45.502;12.238;2024-01-30T08:08:59;5.90;99.90
38784;DHT22;24531;45.502;12.238;2024-01-30T08:11:25;5.90;99.90
38784;DHT22;24531;45.502;12.238;2024-01-30T08:13:52;5.80;99.90
38784;DHT22;24531;45.502;12.238;2024-01-30T08:16:18;5.80;99.90
38784;DHT22;24531;45.502;12.238;2024-01-30T08:18:44;5.70;99.90
38784;DHT22;24531;45.502;12.238;2024-01-30T08:21:09;5.60;99.90
38784;DHT22;24531;45.502;12.238;2024-01-30T08:23:35;5.60;99.90
38784;DHT22;24531;45.502;12.238;2024-01-30T08:26:00;5.50;99.90
38784;DHT22;24531;45.502;12.238;2024-01-30T08:28:26;5.60;99.90
38784;DHT22;24531;45.502;12.238;2024-01-30T08:30:52;5.70;99.90
38784;DHT22;24531;45.502;12.238;2024-01-30T08:33:18;5.80;99.90
38784;DHT22;24531;45.502;12.238;2024-01-30T08:35:44;5.80;99.90
38784;DHT22;24531;45.502;12.238;2024-01-30T08:38:09;6.00;99.90
38784;DHT22;24531;45.502;12.238;2024-01-30T08:40:35;5.90;99.90
38784;DHT22;24531;45.502;12.238;2024-01-30T08:43:01;5.90;99.90
38784;DHT22;24531;45.502;12.238;2024-01-30T08:45:26;6.00;99.90
38784;DHT22;24531;45.502;12.238;2024-01-30T08:47:52;6.10;99.90
38784;DHT22;24531;45.502;12.238;2024-01-30T08:50:17;6.20;99.90
38784;DHT22;24531;45.502;12.238;2024-01-30T08:52:43;6.50;99.90
38784;DHT22;24531;45.502;12.238;2024-01-30T08:55:09;6.50;99.90
38784;DHT22;24531;45.502;12.238;2024-01-30T08:57:34;6.60;99.90
38784;DHT22;24531;45.502;12.238;2024-01-30T09:00:00;6.70;99.90
38784;DHT22;24531;45.502;12.238;2024-01-30T09:02:29;6.70;99.90
38784;DHT22;24531;45.502;12.238;2024-01-30T09:04:55;6.80;99.90
38784;DHT22;24531;45.502;12.238;2024-01-30T09:07:20;6.70;99.90
38784;DHT22;24531;45.502;12.238;2024-01-30T09:09:46;6.80;99.90
38784;DHT22;24531;45.502;12.238;2024-01-30T09:12:12;6.80;99.90
38784;DHT22;24531;45.502;12.238;2024-01-30T09:14:39;6.90;99.90
38784;DHT22;24531;45.502;12.238;2024-01-30T09:17:05;7.00;99.90
38784;DHT22;24531;45.502;12.238;2024-01-30T09:19:31;7.10;99.90
38784;DHT22;24531;45.502;12.238;2024-01-30T09:21:57;7.10;99.90
38784;DHT22;24531;45.502;12.238;2024-01-30T09:24:22;7.20;99.90
38784;DHT22;24531;45.502;12.238;2024-01-30T09:26:48;7.20;99.90
38784;DHT22;24531;45.502;12.238;2024-01-30T09:29:14;7.30;99.90
38784;DHT22;24531;45.502;12.238;2024-01-30T09:31:39;7.50;99.90
38784;DHT22;24531;45.502;12.238;2024-01-30T09:34:08;7.60;99.90
38784;DHT22;24531;45.502;12.238;2024-01-30T09:36:33;7.70;99.90
38784;DHT22;24531;45.502;12.238;2024-01-30T09:38:59;7.80;99.90
38784;DHT22;24531;45.502;12.238;2024-01-30T09:41:27;7.90;99.90
38784;DHT22;24531;45.502;12.238;2024-01-30T09:43:54;8.00;99.90
38784;DHT22;24531;45.502;12.238;2024-01-30T09:46:26;8.10;99.90
38784;DHT22;24531;45.502;12.238;2024-01-30T09:48:53;8.10;99.90
38784;DHT22;24531;45.502;12.238;2024-01-30T09:51:21;8.20;99.90
38784;DHT22;24531;45.502;12.238;2024-01-30T09:53:48;8.30;99.90
38784;DHT22;24531;45.502;12.238;2024-01-30T09:56:14;8.30;99.90
38784;DHT22;24531;45.502;12.238;2024-01-30T09:58:40;8.30;99.90
38784;DHT22;24531;45.502;12.238;2024-01-30T10:01:06;8.40;99.90
38784;DHT22;24531;45.502;12.238;2024-01-30T10:03:32;8.50;99.90
38784;DHT22;24531;45.502;12.238;2024-01-30T10:05:57;8.60;99.90
38784;DHT22;24531;45.502;12.238;2024-01-30T10:08:23;8.60;99.90
38784;DHT22;24531;45.502;12.238;2024-01-30T10:10:50;8.70;99.90
38784;DHT22;24531;45.502;12.238;2024-01-30T10:13:16;8.70;99.90
38784;DHT22;24531;45.502;12.238;2024-01-30T10:15:42;8.70;99.90
38784;DHT22;24531;45.502;12.238;2024-01-30T10:18:11;8.70;99.90
38784;DHT22;24531;45.502;12.238;2024-01-30T10:20:37;8.70;99.90
38784;DHT22;24531;45.502;12.238;2024-01-30T10:23:03;8.80;99.90
38784;DHT22;24531;45.502;12.238;2024-01-30T10:25:30;8.90;99.90
38784;DHT22;24531;45.502;12.238;2024-01-30T10:27:56;8.90;99.90
38784;DHT22;24531;45.502;12.238;2024-01-30T10:30:22;9.00;99.90
38784;DHT22;24531;45.502;12.238;2024-01-30T10:32:48;8.90;99.90
38784;DHT22;24531;45.502;12.238;2024-01-30T10:35:15;9.00;99.90
38784;DHT22;24531;45.502;12.238;2024-01-30T10:37:43;9.10;99.90
38784;DHT22;24531;45.502;12.238;2024-01-30T10:40:09;9.20;99.90
38784;DHT22;24531;45.502;12.238;2024-01-30T10:42:37;9.30;99.90
38784;DHT22;24531;45.502;12.238;2024-01-30T10:45:08;9.40;99.90
38784;DHT22;24531;45.502;12.238;2024-01-30T10:47:35;9.50;99.90
38784;DHT22;24531;45.502;12.238;2024-01-30T10:50:05;9.50;99.90
38784;DHT22;24531;45.502;12.238;2024-01-30T10:52:32;9.50;99.90
38784;DHT22;24531;45.502;12.238;2024-01-30T10:54:59;9.60;99.90
38784;DHT22;24531;45.502;12.238;2024-01-30T10:57:26;9.60;99.90
38784;DHT22;24531;45.502;12.238;2024-01-30T10:59:57;9.60;99.90
38784;DHT22;24531;45.502;12.238;2024-01-30T11:02:24;9.60;99.90
38784;DHT22;24531;45.502;12.238;2024-01-30T11:04:50;9.70;99.90
38784;DHT22;24531;45.502;12.238;2024-01-30T11:07:25;9.70;99.90
38784;DHT22;24531;45.502;12.238;2024-01-30T11:09:52;9.80;99.90
38784;DHT22;24531;45.502;12.238;2024-01-30T11:12:27;9.90;99.90
38784;DHT22;24531;45.502;12.238;2024-01-30T11:15:04;9.90;99.90
38784;DHT22;24531;45.502;12.238;2024-01-30T11:18:00;9.90;99.90
38784;DHT22;24531;45.502;12.238;2024-01-30T11:20:27;10.00;99.90
38784;DHT22;24531;45.502;12.238;2024-01-30T11:22:57;10.10;99.90
38784;DHT22;24531;45.502;12.238;2024-01-30T11:25:24;10.10;99.90
38784;DHT22;24531;45.502;12.238;2024-01-30T11:27:52;10.20;99.90
38784;DHT22;24531;45.502;12.238;2024-01-30T11:30:35;10.20;99.90
38784;DHT22;24531;45.502;12.238;2024-01-30T11:33:06;10.20;99.90
38784;DHT22;24531;45.502;12.238;2024-01-30T11:35:33;10.20;99.90
38784;DHT22;24531;45.502;12.238;2024-01-30T11:38:00;10.30;99.90
38784;DHT22;24531;45.502;12.238;2024-01-30T11:40:28;10.30;99.90
38784;DHT22;24531;45.502;12.238;2024-01-30T11:42:55;10.40;99.90
38784;DHT22;24531;45.502;12.238;2024-01-30T11:45:20;10.50;99.90
38784;DHT22;24531;45.502;12.238;2024-01-30T11:47:46;10.50;99.90
38784;DHT22;24531;45.502;12.238;2024-01-30T11:50:12;10.50;99.90
38784;DHT22;24531;45.502;12.238;2024-01-30T11:52:38;10.60;99.90
38784;DHT22;24531;45.502;12.238;2024-01-30T11:55:04;10.60;99.90
38784;DHT22;24531;45.502;12.238;2024-01-30T11:57:30;10.60;99.90
38784;DHT22;24531;45.502;12.238;2024-01-30T11:59:55;10.60;99.90
38784;DHT22;24531;45.502;12.238;2024-01-30T12:02:21;10.70;99.90
38784;DHT22;24531;45.502;12.238;2024-01-30T12:04:47;10.80;99.90
38784;DHT22;24531;45.502;12.238;2024-01-30T12:07:13;10.80;99.90
38784;DHT22;24531;45.502;12.238;2024-01-30T12:09:41;10.90;99.90
38784;DHT22;24531;45.502;12.238;2024-01-30T12:12:07;10.90;99.90
38784;DHT22;24531;45.502;12.238;2024-01-30T12:14:40;10.90;99.90
38784;DHT22;24531;45.502;12.238;2024-01-30T12:17:07;10.90;99.90
38784;DHT22;24531;45.502;12.238;2024-01-30T12:19:34;11.00;99.90
38784;DHT22;24531;45.502;12.238;2024-01-30T12:21:59;10.90;99.90
38784;DHT22;24531;45.502;12.238;2024-01-30T12:24:28;10.90;99.90
38784;DHT22;24531;45.502;12.238;2024-01-30T12:27:00;11.00;99.90
38784;DHT22;24531;45.502;12.238;2024-01-30T12:29:25;11.00;99.90
38784;DHT22;24531;45.502;12.238;2024-01-30T12:31:54;11.10;99.90
38784;DHT22;24531;45.502;12.238;2024-01-30T12:34:20;11.10;99.90
38784;DHT22;24531;45.502;12.238;2024-01-30T12:36:49;11.10;99.90
38784;DHT22;24531;45.502;12.238;2024-01-30T12:39:15;11.20;99.90
38784;DHT22;24531;45.502;12.238;2024-01-30T12:41:41;11.10;99.90
38784;DHT22;24531;45.502;12.238;2024-01-30T12:44:07;11.20;99.90
38784;DHT22;24531;45.502;12.238;2024-01-30T12:46:34;11.20;99.90
38784;DHT22;24531;45.502;12.238;2024-01-30T12:49:00;11.20;99.90
38784;DHT22;24531;45.502;12.238;2024-01-30T12:51:26;11.30;99.90
38784;DHT22;24531;45.502;12.238;2024-01-30T12:53:51;11.30;99.90
38784;DHT22;24531;45.502;12.238;2024-01-30T12:56:17;11.30;99.90
38784;DHT22;24531;45.502;12.238;2024-01-30T12:58:43;11.30;99.90
38784;DHT22;24531;45.502;12.238;2024-01-30T13:01:09;11.30;99.90
38784;DHT22;24531;45.502;12.238;2024-01-30T13:03:35;11.40;99.90
38784;DHT22;24531;45.502;12.238;2024-01-30T13:06:01;11.40;99.90
38784;DHT22;24531;45.502;12.238;2024-01-30T13:08:26;11.40;99.90
38784;DHT22;24531;45.502;12.238;2024-01-30T13:10:52;11.40;99.90
38784;DHT22;24531;45.502;12.238;2024-01-30T13:13:18;11.40;99.90
38784;DHT22;24531;45.502;12.238;2024-01-30T13:15:43;11.50;99.90
38784;DHT22;24531;45.502;12.238;2024-01-30T13:18:09;11.50;99.90
38784;DHT22;24531;45.502;12.238;2024-01-30T13:20:35;11.60;99.90
38784;DHT22;24531;45.502;12.238;2024-01-30T13:23:01;11.60;99.90
38784;DHT22;24531;45.502;12.238;2024-01-30T13:25:26;11.60;99.90
38784;DHT22;24531;45.502;12.238;2024-01-30T13:27:52;11.70;99.90
38784;DHT22;24531;45.502;12.238;2024-01-30T13:30:18;11.70;99.90
38784;DHT22;24531;45.502;12.238;2024-01-30T13:32:43;11.70;99.90
38784;DHT22;24531;45.502;12.238;2024-01-30T13:35:09;11.70;99.90
38784;DHT22;24531;45.502;12.238;2024-01-30T13:37:35;11.70;99.90
38784;DHT22;24531;45.502;12.238;2024-01-30T13:40:03;11.80;99.90
38784;DHT22;24531;45.502;12.238;2024-01-30T13:42:32;11.80;99.90
38784;DHT22;24531;45.502;12.238;2024-01-30T13:44:58;11.80;99.90
38784;DHT22;24531;45.502;12.238;2024-01-30T13:47:23;11.80;99.90
38784;DHT22;24531;45.502;12.238;2024-01-30T13:49:49;11.90;99.90
38784;DHT22;24531;45.502;12.238;2024-01-30T13:52:15;11.90;99.90
38784;DHT22;24531;45.502;12.238;2024-01-30T13:54:40;11.90;99.90
38784;DHT22;24531;45.502;12.238;2024-01-30T13:57:06;11.90;99.90
38784;DHT22;24531;45.502;12.238;2024-01-30T13:59:33;11.90;99.90
38784;DHT22;24531;45.502;12.238;2024-01-30T14:01:58;11.90;99.90
38784;DHT22;24531;45.502;12.238;2024-01-30T14:04:24;11.90;99.90
38784;DHT22;24531;45.502;12.238;2024-01-30T14:06:50;11.80;99.90
38784;DHT22;24531;45.502;12.238;2024-01-30T14:09:15;11.90;99.90
38784;DHT22;24531;45.502;12.238;2024-01-30T14:11:41;11.90;99.90
38784;DHT22;24531;45.502;12.238;2024-01-30T14:14:08;11.90;99.90
38784;DHT22;24531;45.502;12.238;2024-01-30T14:16:34;11.80;99.90
38784;DHT22;24531;45.502;12.238;2024-01-30T14:18:59;11.80;99.90
38784;DHT22;24531;45.502;12.238;2024-01-30T14:21:25;11.80;99.90
38784;DHT22;24531;45.502;12.238;2024-01-30T14:23:51;11.80;99.90
38784;DHT22;24531;45.502;12.238;2024-01-30T14:26:16;11.90;99.90
38784;DHT22;24531;45.502;12.238;2024-01-30T14:28:42;11.90;99.90
38784;DHT22;24531;45.502;12.238;2024-01-30T14:31:09;11.90;99.90
38784;DHT22;24531;45.502;12.238;2024-01-30T14:33:34;11.90;99.90
38784;DHT22;24531;45.502;12.238;2024-01-30T14:36:00;11.90;99.90
38784;DHT22;24531;45.502;12.238;2024-01-30T14:38:25;11.90;99.90
38784;DHT22;24531;45.502;12.238;2024-01-30T14:40:51;11.80;99.90
38784;DHT22;24531;45.502;12.238;2024-01-30T14:43:17;11.80;99.90
38784;DHT22;24531;45.502;12.238;2024-01-30T14:45:43;11.80;99.90
38784;DHT22;24531;45.502;12.238;2024-01-30T14:48:11;11.80;99.90
38784;DHT22;24531;45.502;12.238;2024-01-30T14:50:36;11.70;99.90
38784;DHT22;24531;45.502;12.238;2024-01-30T14:53:03;11.70;99.90
38784;DHT22;24531;45.502;12.238;2024-01-30T14:55:28;11.70;99.90
38784;DHT22;24531;45.502;12.238;2024-01-30T14:57:54;11.80;99.90
38784;DHT22;24531;45.502;12.238;2024-01-30T15:00:20;11.70;99.90
38784;DHT22;24531;45.502;12.238;2024-01-30T15:02:45;11.70;99.90
38784;DHT22;24531;45.502;12.238;2024-01-30T15:05:12;11.70;99.90
38784;DHT22;24531;45.502;12.238;2024-01-30T15:07:38;11.70;99.90
38784;DHT22;24531;45.502;12.238;2024-01-30T15:10:04;11.70;99.90
38784;DHT22;24531;45.502;12.238;2024-01-30T15:12:30;11.70;99.90
38784;DHT22;24531;45.502;12.238;2024-01-30T15:14:56;11.60;99.90
38784;DHT22;24531;45.502;12.238;2024-01-30T15:17:21;11.60;99.90
38784;DHT22;24531;45.502;12.238;2024-01-30T15:19:47;11.50;99.90
38784;DHT22;24531;45.502;12.238;2024-01-30T15:22:13;11.50;99.90